Time,TemperatureF,DewpointF,PressureIn,WindDirection,WindDirectionDegrees,WindSpeedMPH,WindSpeedGustMPH,Humidity,HourlyPrecipIn,Conditions,Clouds,dailyrainin,SoftwareType,DateUTC
2013-05-24 00:01:00,64.2,63.3,29.81,SE,135,1.6,3.1,97,0.00,,,0.00,pywws,2013-05-24 04:01:00,
2013-05-24 00:02:00,64.2,63.3,29.81,South,180,1.6,2.2,97,0.00,,,0.00,pywws,2013-05-24 04:02:00,
2013-05-24 00:07:00,64.0,63.2,29.81,South,180,0.7,1.6,97,0.00,,,0.00,pywws,2013-05-24 04:07:00,
2013-05-24 00:08:00,64.0,63.2,29.81,South,180,0.7,1.6,97,0.00,,,0.00,pywws,2013-05-24 04:08:00,
2013-05-24 00:14:00,64.0,63.2,29.80,SE,135,0.0,1.6,97,0.00,,,0.00,pywws,2013-05-24 04:14:00,
2013-05-24 00:19:00,64.0,63.2,29.80,NE,45,0.0,0.0,97,0.00,,,0.00,pywws,2013-05-24 04:19:00,
2013-05-24 00:22:00,64.0,63.2,29.80,West,270,0.7,1.6,97,0.00,,,0.00,pywws,2013-05-24 04:22:00,
2013-05-24 00:28:00,64.0,63.2,29.80,SE,135,0.7,0.7,97,0.00,,,0.00,pywws,2013-05-24 04:28:00,
2013-05-24 00:34:00,63.9,63.0,29.80,South,180,0.7,1.6,97,0.00,,,0.00,pywws,2013-05-24 04:34:00,
2013-05-24 00:39:00,63.9,63.0,29.79,SW,225,1.6,2.2,97,0.00,,,0.00,pywws,2013-05-24 04:39:00,
2013-05-24 00:45:00,63.9,63.0,29.79,South,180,0.7,0.7,97,0.00,,,0.00,pywws,2013-05-24 04:45:00,
2013-05-24 00:50:00,63.7,62.8,29.79,SE,135,0.7,1.6,97,0.00,,,0.00,pywws,2013-05-24 04:50:00,
2013-05-24 00:56:00,63.5,62.6,29.79,SW,225,0.7,1.6,97,0.00,,,0.00,pywws,2013-05-24 04:56:00,
2013-05-24 01:02:00,63.5,62.6,29.78,South,180,0.7,1.6,97,0.00,,,0.00,pywws,2013-05-24 05:02:00,
2013-05-24 01:07:00,63.3,62.5,29.79,South,180,0.7,1.6,97,0.00,,,0.00,pywws,2013-05-24 05:07:00,
2013-05-24 01:13:00,63.3,62.5,29.78,SE,135,0.7,1.6,97,0.00,,,0.00,pywws,2013-05-24 05:13:00,
2013-05-24 01:18:00,63.3,62.5,29.79,SW,225,2.2,3.8,97,0.00,,,0.00,pywws,2013-05-24 05:18:00,
2013-05-24 01:24:00,63.1,62.3,29.80,South,180,1.6,3.8,97,0.06,,,0.06,pywws,2013-05-24 05:24:00,
2013-05-24 01:30:00,62.6,61.7,29.80,North,0,2.2,3.8,97,0.06,,,0.06,pywws,2013-05-24 05:30:00,
2013-05-24 01:35:00,61.9,61.3,29.80,NW,315,0.0,1.6,98,0.07,,,0.07,pywws,2013-05-24 05:35:00,
2013-05-24 01:41:00,61.9,61.3,29.79,North,0,0.0,0.0,98,0.07,,,0.07,pywws,2013-05-24 05:41:00,
2013-05-24 01:46:00,61.7,61.1,29.79,North,0,0.0,0.7,98,0.08,,,0.08,pywws,2013-05-24 05:46:00,
2013-05-24 01:52:00,61.7,61.1,29.79,North,0,0.0,0.0,98,0.08,,,0.08,pywws,2013-05-24 05:52:00,
2013-05-24 01:58:00,61.7,61.1,29.78,North,0,0.0,0.0,98,0.08,,,0.08,pywws,2013-05-24 05:58:00,
2013-05-24 02:03:00,61.7,61.1,29.78,North,0,0.0,0.0,98,0.08,,,0.08,pywws,2013-05-24 06:03:00,
2013-05-24 02:09:00,61.5,60.9,29.78,NE,45,0.0,0.0,98,0.08,,,0.08,pywws,2013-05-24 06:09:00,
2013-05-24 02:15:00,61.5,60.9,29.78,SE,135,0.0,0.0,98,0.08,,,0.08,pywws,2013-05-24 06:15:00,
2013-05-24 02:21:00,61.3,60.8,29.77,SE,135,0.0,0.0,98,0.08,,,0.08,pywws,2013-05-24 06:21:00,
2013-05-24 02:26:00,61.3,60.8,29.77,NE,45,0.0,0.0,98,0.02,,,0.08,pywws,2013-05-24 06:26:00,
2013-05-24 02:32:00,61.3,60.8,29.77,NE,45,0.0,0.0,98,0.01,,,0.08,pywws,2013-05-24 06:32:00,
2013-05-24 02:38:00,61.3,60.8,29.76,NE,45,0.0,0.0,98,0.01,,,0.08,pywws,2013-05-24 06:38:00,
2013-05-24 02:43:00,61.2,60.6,29.76,NE,45,0.0,0.0,98,0.00,,,0.08,pywws,2013-05-24 06:43:00,
2013-05-24 02:50:00,61.2,60.6,29.75,NE,45,0.0,0.0,98,0.00,,,0.08,pywws,2013-05-24 06:50:00,
2013-05-24 02:55:00,61.2,60.6,29.74,NE,45,0.0,0.0,98,0.00,,,0.08,pywws,2013-05-24 06:55:00,
2013-05-24 03:01:00,61.2,60.6,29.74,East,90,0.0,0.0,98,0.00,,,0.08,pywws,2013-05-24 07:01:00,
2013-05-24 03:07:00,61.3,60.8,29.73,East,90,0.0,0.0,98,0.00,,,0.08,pywws,2013-05-24 07:07:00,
2013-05-24 03:13:00,61.3,60.8,29.73,East,90,0.0,0.0,98,0.00,,,0.08,pywws,2013-05-24 07:13:00,
2013-05-24 03:20:00,61.3,60.8,29.73,North,0,0.0,0.0,98,0.00,,,0.08,pywws,2013-05-24 07:20:00,
2013-05-24 03:26:00,61.3,60.8,29.72,East,90,0.0,0.0,98,0.00,,,0.08,pywws,2013-05-24 07:26:00,
2013-05-24 03:31:00,61.2,60.6,29.72,East,90,0.0,0.0,98,0.00,,,0.08,pywws,2013-05-24 07:31:00,
2013-05-24 03:37:00,61.3,60.8,29.72,East,90,0.0,0.0,98,0.00,,,0.08,pywws,2013-05-24 07:37:00,
2013-05-24 03:42:00,61.2,60.6,29.72,East,90,0.0,0.0,98,0.00,,,0.08,pywws,2013-05-24 07:42:00,
2013-05-24 03:48:00,61.2,60.6,29.72,East,90,0.0,0.0,98,0.00,,,0.08,pywws,2013-05-24 07:48:00,
2013-05-24 03:54:00,61.3,60.8,29.73,NW,315,0.0,0.7,98,0.00,,,0.08,pywws,2013-05-24 07:54:00,
2013-05-24 03:59:00,61.2,60.6,29.72,North,0,0.0,0.0,98,0.00,,,0.08,pywws,2013-05-24 07:59:00,
2013-05-24 04:05:00,61.2,60.6,29.73,North,0,0.0,0.0,98,0.00,,,0.08,pywws,2013-05-24 08:05:00,
2013-05-24 04:10:00,61.0,60.4,29.73,North,0,0.0,0.0,98,0.00,,,0.08,pywws,2013-05-24 08:10:00,
2013-05-24 04:16:00,61.0,60.4,29.74,SW,225,0.7,2.2,98,0.00,,,0.08,pywws,2013-05-24 08:16:00,
2013-05-24 04:22:00,61.0,60.4,29.75,NW,315,0.0,0.7,98,0.00,,,0.08,pywws,2013-05-24 08:22:00,
2013-05-24 04:27:00,61.0,60.4,29.75,West,270,0.7,1.6,98,0.00,,,0.08,pywws,2013-05-24 08:27:00,
2013-05-24 04:33:00,60.8,60.2,29.75,SW,225,2.2,3.1,98,0.00,,,0.08,pywws,2013-05-24 08:33:00,
2013-05-24 04:38:00,60.8,60.2,29.75,North,0,0.0,0.7,98,0.00,,,0.08,pywws,2013-05-24 08:38:00,
2013-05-24 04:44:00,60.8,60.2,29.74,NW,315,0.0,0.0,98,0.00,,,0.08,pywws,2013-05-24 08:44:00,
2013-05-24 04:50:00,60.8,60.2,29.75,NW,315,0.0,0.7,98,0.00,,,0.08,pywws,2013-05-24 08:50:00,
2013-05-24 04:55:00,60.8,60.2,29.75,NW,315,0.0,0.0,98,0.00,,,0.08,pywws,2013-05-24 08:55:00,
2013-05-24 05:01:00,60.8,60.2,29.75,SW,225,0.7,2.2,98,0.00,,,0.08,pywws,2013-05-24 09:01:00,
2013-05-24 05:06:00,60.8,60.2,29.75,North,0,0.0,0.7,98,0.00,,,0.08,pywws,2013-05-24 09:06:00,
2013-05-24 05:12:00,60.8,60.2,29.75,NE,45,2.2,3.8,98,0.00,,,0.08,pywws,2013-05-24 09:12:00,
2013-05-24 05:18:00,60.8,60.2,29.75,SW,225,0.7,1.6,98,0.00,,,0.08,pywws,2013-05-24 09:18:00,
2013-05-24 05:23:00,60.8,60.2,29.76,NW,315,0.0,0.0,98,0.00,,,0.08,pywws,2013-05-24 09:23:00,
2013-05-24 05:29:00,61.0,60.4,29.76,West,270,0.0,0.7,98,0.00,,,0.08,pywws,2013-05-24 09:29:00,
2013-05-24 05:34:00,61.0,60.4,29.76,NE,45,0.0,0.7,98,0.00,,,0.08,pywws,2013-05-24 09:34:00,
2013-05-24 05:40:00,60.8,60.2,29.76,North,0,0.0,0.0,98,0.00,,,0.08,pywws,2013-05-24 09:40:00,
2013-05-24 05:46:00,60.8,60.2,29.76,SW,225,0.7,1.6,98,0.00,,,0.08,pywws,2013-05-24 09:46:00,
2013-05-24 05:51:00,60.8,60.2,29.76,SW,225,0.0,0.7,98,0.00,,,0.08,pywws,2013-05-24 09:51:00,
2013-05-24 05:57:00,60.8,60.2,29.76,SW,225,1.6,2.2,98,0.00,,,0.08,pywws,2013-05-24 09:57:00,
2013-05-24 06:02:00,60.8,60.2,29.76,SW,225,2.2,3.8,98,0.00,,,0.08,pywws,2013-05-24 10:02:00,
2013-05-24 06:08:00,60.8,60.2,29.76,West,270,0.7,1.6,98,0.00,,,0.08,pywws,2013-05-24 10:08:00,
2013-05-24 06:14:00,60.8,60.2,29.76,NW,315,0.7,1.6,98,0.00,,,0.08,pywws,2013-05-24 10:14:00,
2013-05-24 06:20:00,60.8,60.2,29.77,SW,225,0.7,2.2,98,0.00,,,0.08,pywws,2013-05-24 10:20:00,
2013-05-24 06:26:00,60.8,60.2,29.77,SW,225,0.7,1.6,98,0.00,,,0.08,pywws,2013-05-24 10:26:00,
2013-05-24 06:31:00,60.8,60.2,29.77,SW,225,0.0,0.7,98,0.00,,,0.08,pywws,2013-05-24 10:31:00,
2013-05-24 06:37:00,60.8,60.2,29.77,South,180,0.7,1.6,98,0.00,,,0.08,pywws,2013-05-24 10:37:00,
2013-05-24 06:42:00,61.0,60.4,29.77,North,0,0.0,0.0,98,0.00,,,0.08,pywws,2013-05-24 10:42:00,
2013-05-24 06:48:00,61.0,60.4,29.77,South,180,0.7,1.6,98,0.00,,,0.08,pywws,2013-05-24 10:48:00,
2013-05-24 06:54:00,61.0,60.4,29.77,North,0,0.0,0.0,98,0.00,,,0.08,pywws,2013-05-24 10:54:00,
2013-05-24 07:00:00,61.2,60.6,29.78,West,270,0.0,0.7,98,0.00,,,0.08,pywws,2013-05-24 11:00:00,
2013-05-24 07:06:00,61.3,60.8,29.77,North,0,0.0,0.0,98,0.00,,,0.08,pywws,2013-05-24 11:06:00,
2013-05-24 07:11:00,61.3,60.8,29.78,West,270,1.6,2.2,98,0.00,,,0.08,pywws,2013-05-24 11:11:00,
2013-05-24 07:17:00,61.3,60.8,29.78,West,270,1.6,2.2,98,0.00,,,0.08,pywws,2013-05-24 11:17:00,
2013-05-24 07:22:00,61.5,60.9,29.78,SW,225,0.0,0.7,98,0.00,,,0.08,pywws,2013-05-24 11:22:00,
2013-05-24 07:28:00,61.5,60.9,29.78,NW,315,0.0,0.0,98,0.00,,,0.08,pywws,2013-05-24 11:28:00,
2013-05-24 07:34:00,61.7,61.1,29.78,SW,225,0.7,0.7,98,0.00,,,0.08,pywws,2013-05-24 11:34:00,
2013-05-24 07:40:00,61.9,61.3,29.78,NW,315,0.7,1.6,98,0.00,,,0.08,pywws,2013-05-24 11:40:00,
2013-05-24 07:46:00,61.9,61.3,29.78,NW,315,0.7,1.6,98,0.00,,,0.08,pywws,2013-05-24 11:46:00,
2013-05-24 07:51:00,61.9,61.3,29.78,SW,225,1.6,2.2,98,0.00,,,0.08,pywws,2013-05-24 11:51:00,
2013-05-24 07:57:00,61.9,61.3,29.78,West,270,1.6,2.2,98,0.00,,,0.08,pywws,2013-05-24 11:57:00,
2013-05-24 08:02:00,62.1,61.5,29.78,NW,315,0.0,0.0,98,0.00,,,0.08,pywws,2013-05-24 12:02:00,
2013-05-24 08:08:00,61.9,61.3,29.79,South,180,0.7,1.6,98,0.00,,,0.08,pywws,2013-05-24 12:08:00,
2013-05-24 08:14:00,61.7,61.1,29.79,SW,225,1.6,2.2,98,0.00,,,0.08,pywws,2013-05-24 12:14:00,
2013-05-24 08:20:00,61.9,61.3,29.79,North,0,0.0,0.0,98,0.01,,,0.09,pywws,2013-05-24 12:20:00,
2013-05-24 08:26:00,62.1,61.5,29.79,South,180,1.6,2.2,98,0.01,,,0.09,pywws,2013-05-24 12:26:00,
2013-05-24 08:31:00,61.9,61.3,29.79,SW,225,0.7,1.6,98,0.01,,,0.09,pywws,2013-05-24 12:31:00,
2013-05-24 08:37:00,62.1,61.5,29.79,North,0,0.0,0.0,98,0.01,,,0.09,pywws,2013-05-24 12:37:00,
2013-05-24 08:42:00,62.1,61.5,29.79,SW,225,3.1,3.8,98,0.01,,,0.09,pywws,2013-05-24 12:42:00,
2013-05-24 08:48:00,61.9,61.3,29.79,NW,315,0.7,1.6,98,0.01,,,0.09,pywws,2013-05-24 12:48:00,
2013-05-24 08:54:00,61.9,61.3,29.80,NW,315,0.7,1.6,98,0.01,,,0.09,pywws,2013-05-24 12:54:00,
2013-05-24 09:00:00,61.9,61.3,29.80,North,0,0.0,0.7,98,0.01,,,0.09,pywws,2013-05-24 13:00:00,
2013-05-24 09:06:00,61.9,61.3,29.80,NW,315,0.0,0.7,98,0.01,,,0.09,pywws,2013-05-24 13:06:00,
2013-05-24 09:11:00,62.1,61.5,29.79,SW,225,0.7,1.6,98,0.01,,,0.09,pywws,2013-05-24 13:11:00,
2013-05-24 09:17:00,62.1,61.5,29.80,SW,225,0.7,2.2,98,0.01,,,0.09,pywws,2013-05-24 13:17:00,
2013-05-24 09:22:00,62.2,61.7,29.80,North,0,0.0,0.0,98,0.00,,,0.09,pywws,2013-05-24 13:22:00,
2013-05-24 09:28:00,62.6,61.7,29.80,North,0,0.0,0.0,97,0.00,,,0.09,pywws,2013-05-24 13:28:00,
2013-05-24 09:35:00,62.8,61.9,29.80,North,0,0.0,0.0,97,0.00,,,0.09,pywws,2013-05-24 13:35:00,
2013-05-24 09:41:00,62.1,61.5,29.80,West,270,1.6,2.2,98,0.00,,,0.09,pywws,2013-05-24 13:41:00,
2013-05-24 09:46:00,61.0,60.4,29.80,SW,225,2.2,5.4,98,0.00,,,0.09,pywws,2013-05-24 13:46:00,
2013-05-24 09:52:00,59.7,59.4,29.82,North,0,1.6,2.2,99,0.00,,,0.09,pywws,2013-05-24 13:52:00,
2013-05-24 09:58:00,58.8,58.5,29.82,North,0,2.2,3.8,99,0.00,,,0.09,pywws,2013-05-24 13:58:00,
2013-05-24 10:03:00,57.9,57.6,29.81,NW,315,0.7,1.6,99,0.00,,,0.09,pywws,2013-05-24 14:03:00,
2013-05-24 10:09:00,57.9,57.6,29.82,North,0,0.0,0.7,99,0.00,,,0.09,pywws,2013-05-24 14:09:00,
2013-05-24 10:14:00,57.7,57.5,29.82,NW,315,0.7,2.2,99,0.00,,,0.09,pywws,2013-05-24 14:14:00,
2013-05-24 10:20:00,57.4,57.1,29.82,NW,315,2.2,4.5,99,0.00,,,0.09,pywws,2013-05-24 14:20:00,
2013-05-24 10:26:00,57.2,56.9,29.83,North,0,0.7,2.2,99,0.00,,,0.09,pywws,2013-05-24 14:26:00,
2013-05-24 10:31:00,56.7,56.4,29.82,North,0,0.7,1.6,99,0.00,,,0.09,pywws,2013-05-24 14:31:00,
2013-05-24 10:37:00,56.5,56.2,29.82,North,0,1.6,2.2,99,0.00,,,0.09,pywws,2013-05-24 14:37:00,
2013-05-24 10:42:00,56.3,56.0,29.82,North,0,0.7,2.2,99,0.00,,,0.09,pywws,2013-05-24 14:42:00,
2013-05-24 10:48:00,56.1,55.8,29.81,North,0,0.7,1.6,99,0.00,,,0.09,pywws,2013-05-24 14:48:00,
2013-05-24 10:54:00,56.1,55.8,29.82,SW,225,1.6,3.8,99,0.00,,,0.09,pywws,2013-05-24 14:54:00,
2013-05-24 10:59:00,56.1,55.8,29.83,NW,315,0.0,0.0,99,0.00,,,0.09,pywws,2013-05-24 14:59:00,
2013-05-24 11:05:00,56.1,55.8,29.83,NW,315,1.6,2.2,99,0.00,,,0.09,pywws,2013-05-24 15:05:00,
2013-05-24 11:10:00,55.6,55.3,29.83,NW,315,1.6,4.5,99,0.00,,,0.09,pywws,2013-05-24 15:10:00,
2013-05-24 11:16:00,55.2,54.4,29.83,North,0,1.6,2.2,97,0.00,,,0.09,pywws,2013-05-24 15:16:00,
2013-05-24 11:22:00,55.0,54.2,29.84,North,0,1.6,2.2,97,0.00,,,0.09,pywws,2013-05-24 15:22:00,
2013-05-24 11:27:00,54.9,54.0,29.84,North,0,1.6,2.2,97,0.00,,,0.09,pywws,2013-05-24 15:27:00,
2013-05-24 11:33:00,54.7,53.8,29.84,NW,315,3.1,6.0,97,0.00,,,0.09,pywws,2013-05-24 15:33:00,
2013-05-24 11:38:00,54.3,53.5,29.84,NE,45,0.0,0.7,97,0.00,,,0.09,pywws,2013-05-24 15:38:00,
2013-05-24 11:44:00,54.3,53.5,29.85,North,0,0.0,0.7,97,0.00,,,0.09,pywws,2013-05-24 15:44:00,
2013-05-24 11:50:00,54.1,53.3,29.85,North,0,0.0,1.6,97,0.00,,,0.09,pywws,2013-05-24 15:50:00,
2013-05-24 11:55:00,54.1,53.3,29.85,North,0,0.7,1.6,97,0.00,,,0.09,pywws,2013-05-24 15:55:00,
2013-05-24 12:01:00,54.1,53.0,29.85,North,0,0.7,1.6,96,0.00,,,0.09,pywws,2013-05-24 16:01:00,
2013-05-24 12:07:00,54.1,53.0,29.85,North,0,0.7,1.6,96,0.00,,,0.09,pywws,2013-05-24 16:07:00,
2013-05-24 12:13:00,54.0,52.8,29.85,North,0,0.0,0.0,96,0.00,,,0.09,pywws,2013-05-24 16:13:00,
2013-05-24 12:18:00,54.1,53.0,29.86,North,0,0.7,1.6,96,0.00,,,0.09,pywws,2013-05-24 16:18:00,
2013-05-24 12:24:00,54.1,53.0,29.85,North,0,0.0,1.6,96,0.00,,,0.09,pywws,2013-05-24 16:24:00,
2013-05-24 12:30:00,54.1,53.3,29.85,North,0,0.7,1.6,97,0.00,,,0.09,pywws,2013-05-24 16:30:00,
2013-05-24 12:35:00,54.1,53.3,29.85,North,0,1.6,2.2,97,0.00,,,0.09,pywws,2013-05-24 16:35:00,
2013-05-24 12:41:00,54.0,53.1,29.85,North,0,0.7,1.6,97,0.00,,,0.09,pywws,2013-05-24 16:41:00,
2013-05-24 12:46:00,53.8,52.7,29.86,NE,45,1.6,2.2,96,0.00,,,0.09,pywws,2013-05-24 16:46:00,
2013-05-24 12:52:00,53.6,52.5,29.86,West,270,0.7,2.2,96,0.00,,,0.09,pywws,2013-05-24 16:52:00,
2013-05-24 12:58:00,53.6,52.8,29.86,North,0,0.7,1.6,97,0.00,,,0.09,pywws,2013-05-24 16:58:00,
2013-05-24 13:03:00,53.4,52.6,29.86,North,0,0.7,0.7,97,0.00,,,0.09,pywws,2013-05-24 17:03:00,
2013-05-24 13:09:00,53.2,52.4,29.86,North,0,0.7,1.6,97,0.00,,,0.09,pywws,2013-05-24 17:09:00,
2013-05-24 13:14:00,52.9,52.3,29.86,North,0,1.6,2.2,98,0.00,,,0.09,pywws,2013-05-24 17:14:00,
2013-05-24 13:20:00,52.7,52.2,29.87,North,0,0.7,1.6,98,0.00,,,0.09,pywws,2013-05-24 17:20:00,
2013-05-24 13:26:00,52.5,52.0,29.87,North,0,0.0,1.6,98,0.00,,,0.09,pywws,2013-05-24 17:26:00,
2013-05-24 13:31:00,52.5,52.0,29.87,North,0,1.6,2.2,98,0.00,,,0.09,pywws,2013-05-24 17:31:00,
2013-05-24 13:37:00,52.2,51.6,29.86,North,0,0.7,2.2,98,0.00,,,0.09,pywws,2013-05-24 17:37:00,
2013-05-24 13:43:00,52.0,51.4,29.87,North,0,0.7,1.6,98,0.00,,,0.09,pywws,2013-05-24 17:43:00,
2013-05-24 13:49:00,52.0,51.4,29.87,NE,45,0.7,1.6,98,0.00,,,0.09,pywws,2013-05-24 17:49:00,
2013-05-24 13:54:00,51.8,51.3,29.86,North,0,0.7,2.2,98,0.00,,,0.09,pywws,2013-05-24 17:54:00,
2013-05-24 14:00:00,51.8,51.3,29.87,North,0,0.7,1.6,98,0.00,,,0.09,pywws,2013-05-24 18:00:00,
2013-05-24 14:06:00,51.8,51.3,29.87,NW,315,0.7,3.1,98,0.00,,,0.09,pywws,2013-05-24 18:06:00,
2013-05-24 14:11:00,51.8,51.3,29.87,NNE,22,0.7,3.1,98,0.00,,,0.09,pywws,2013-05-24 18:11:00,
2013-05-24 14:17:00,51.8,51.3,29.88,North,0,0.7,1.6,98,0.00,,,0.09,pywws,2013-05-24 18:17:00,
2013-05-24 14:22:00,51.8,51.3,29.87,North,0,0.7,1.6,98,0.00,,,0.09,pywws,2013-05-24 18:22:00,
2013-05-24 14:28:00,51.8,51.3,29.87,North,0,1.6,2.2,98,0.00,,,0.09,pywws,2013-05-24 18:28:00,
2013-05-24 14:34:00,51.6,51.3,29.88,North,0,0.7,2.2,99,0.00,,,0.09,pywws,2013-05-24 18:34:00,
2013-05-24 14:39:00,51.4,51.2,29.88,North,0,0.7,2.2,99,0.00,,,0.09,pywws,2013-05-24 18:39:00,
2013-05-24 14:45:00,51.4,51.2,29.88,North,0,0.7,2.2,99,0.00,,,0.09,pywws,2013-05-24 18:45:00,
2013-05-24 14:50:00,51.4,51.2,29.88,North,0,0.7,1.6,99,0.00,,,0.09,pywws,2013-05-24 18:50:00,
2013-05-24 14:56:00,51.4,51.2,29.88,North,0,1.6,2.2,99,0.00,,,0.09,pywws,2013-05-24 18:56:00,
2013-05-24 15:02:00,51.3,51.0,29.88,North,0,1.6,1.6,99,0.00,,,0.09,pywws,2013-05-24 19:02:00,
2013-05-24 15:07:00,51.3,51.0,29.88,North,0,0.7,1.6,99,0.00,,,0.09,pywws,2013-05-24 19:07:00,
2013-05-24 15:14:00,51.3,51.0,29.88,North,0,0.7,1.6,99,0.00,,,0.09,pywws,2013-05-24 19:14:00,
2013-05-24 15:19:00,51.3,51.0,29.88,NNE,22,1.6,3.1,99,0.01,,,0.11,pywws,2013-05-24 19:19:00,
2013-05-24 15:25:00,50.9,50.6,29.87,North,0,0.7,1.6,99,0.01,,,0.11,pywws,2013-05-24 19:25:00,
2013-05-24 15:30:00,51.1,50.8,29.88,North,0,2.2,3.1,99,0.01,,,0.11,pywws,2013-05-24 19:30:00,
2013-05-24 15:36:00,50.9,50.6,29.88,NE,45,0.7,2.2,99,0.01,,,0.11,pywws,2013-05-24 19:36:00,
2013-05-24 15:42:00,50.7,50.4,29.88,NE,45,1.6,2.2,99,0.01,,,0.11,pywws,2013-05-24 19:42:00,
2013-05-24 15:47:00,50.7,50.4,29.88,North,0,1.6,2.2,99,0.01,,,0.11,pywws,2013-05-24 19:47:00,
2013-05-24 15:53:00,50.9,50.6,29.88,North,0,0.7,2.2,99,0.01,,,0.11,pywws,2013-05-24 19:53:00,
2013-05-24 15:58:00,50.9,50.6,29.88,North,0,1.6,3.1,99,0.01,,,0.11,pywws,2013-05-24 19:58:00,
2013-05-24 16:04:00,51.1,50.8,29.88,North,0,0.7,2.2,99,0.01,,,0.11,pywws,2013-05-24 20:04:00,
2013-05-24 16:10:00,51.1,50.8,29.89,NE,45,1.6,3.1,99,0.01,,,0.11,pywws,2013-05-24 20:10:00,
2013-05-24 16:15:00,50.7,50.4,29.89,North,0,0.7,2.2,99,0.01,,,0.11,pywws,2013-05-24 20:15:00,
2013-05-24 16:21:00,50.5,50.3,29.90,North,0,1.6,2.2,99,0.00,,,0.11,pywws,2013-05-24 20:21:00,
2013-05-24 16:27:00,50.4,50.1,29.89,North,0,2.2,3.1,99,0.00,,,0.11,pywws,2013-05-24 20:27:00,
2013-05-24 16:33:00,50.2,49.9,29.89,North,0,0.7,1.6,99,0.00,,,0.11,pywws,2013-05-24 20:33:00,
2013-05-24 16:40:00,50.0,49.7,29.89,North,0,0.7,1.6,99,0.00,,,0.11,pywws,2013-05-24 20:40:00,
2013-05-24 16:46:00,50.2,49.9,29.88,North,0,0.0,0.7,99,0.00,,,0.11,pywws,2013-05-24 20:46:00,
2013-05-24 16:51:00,50.2,49.9,29.89,North,0,0.7,1.6,99,0.00,,,0.11,pywws,2013-05-24 20:51:00,
2013-05-24 16:57:00,50.2,49.9,29.88,North,0,0.7,1.6,99,0.00,,,0.11,pywws,2013-05-24 20:57:00,
2013-05-24 17:02:00,50.2,49.9,29.88,North,0,0.0,1.6,99,0.01,,,0.12,pywws,2013-05-24 21:02:00,
2013-05-24 17:08:00,50.4,50.1,29.89,North,0,0.7,1.6,99,0.01,,,0.12,pywws,2013-05-24 21:08:00,
2013-05-24 17:14:00,50.5,50.3,29.89,North,0,0.0,0.0,99,0.01,,,0.12,pywws,2013-05-24 21:14:00,
2013-05-24 17:19:00,50.5,50.3,29.89,North,0,0.7,1.6,99,0.02,,,0.13,pywws,2013-05-24 21:19:00,
2013-05-24 17:25:00,50.5,50.3,29.90,NW,315,1.6,2.2,99,0.02,,,0.13,pywws,2013-05-24 21:25:00,
2013-05-24 17:30:00,50.4,50.1,29.89,North,0,0.7,1.6,99,0.02,,,0.13,pywws,2013-05-24 21:30:00,
2013-05-24 17:36:00,50.0,49.7,29.90,North,0,0.7,2.2,99,0.02,,,0.13,pywws,2013-05-24 21:36:00,
2013-05-24 17:42:00,49.8,49.5,29.90,North,0,1.6,2.2,99,0.02,,,0.13,pywws,2013-05-24 21:42:00,
2013-05-24 17:47:00,50.0,49.7,29.90,North,0,0.7,2.2,99,0.02,,,0.13,pywws,2013-05-24 21:47:00,
2013-05-24 17:53:00,50.0,49.7,29.89,NE,45,0.7,1.6,99,0.02,,,0.13,pywws,2013-05-24 21:53:00,
2013-05-24 17:59:00,49.6,49.4,29.90,NE,45,2.2,3.1,99,0.01,,,0.13,pywws,2013-05-24 21:59:00,
2013-05-24 18:05:00,49.3,49.0,29.90,North,0,1.6,2.2,99,0.01,,,0.13,pywws,2013-05-24 22:05:00,
2013-05-24 18:10:00,48.9,48.7,29.90,North,0,1.6,2.2,99,0.01,,,0.13,pywws,2013-05-24 22:10:00,
2013-05-24 18:16:00,48.9,48.7,29.90,West,270,1.6,2.2,99,0.01,,,0.13,pywws,2013-05-24 22:16:00,
2013-05-24 18:22:00,48.7,48.5,29.90,North,0,0.0,1.6,99,0.01,,,0.14,pywws,2013-05-24 22:22:00,
2013-05-24 18:28:00,48.6,48.3,29.91,North,0,0.7,1.6,99,0.01,,,0.14,pywws,2013-05-24 22:28:00,
2013-05-24 18:34:00,48.4,48.1,29.91,North,0,0.0,1.6,99,0.01,,,0.14,pywws,2013-05-24 22:34:00,
2013-05-24 18:39:00,48.2,47.9,29.91,North,0,1.6,2.2,99,0.01,,,0.14,pywws,2013-05-24 22:39:00,
2013-05-24 18:45:00,48.0,47.8,29.92,North,0,0.7,1.6,99,0.01,,,0.14,pywws,2013-05-24 22:45:00,
2013-05-24 18:50:00,48.0,47.8,29.92,North,0,0.7,2.2,99,0.01,,,0.14,pywws,2013-05-24 22:50:00,
2013-05-24 18:56:00,48.0,47.8,29.93,North,0,0.7,1.6,99,0.02,,,0.15,pywws,2013-05-24 22:56:00,
2013-05-24 19:03:00,47.8,47.6,29.93,NNE,22,0.7,2.2,99,0.02,,,0.15,pywws,2013-05-24 23:03:00,
2013-05-24 19:09:00,47.8,47.6,29.93,North,0,0.7,2.2,99,0.02,,,0.15,pywws,2013-05-24 23:09:00,
2013-05-24 19:14:00,47.7,47.4,29.93,North,0,1.6,2.2,99,0.02,,,0.15,pywws,2013-05-24 23:14:00,
2013-05-24 19:20:00,47.5,47.2,29.93,NW,315,1.6,2.2,99,0.01,,,0.15,pywws,2013-05-24 23:20:00,
2013-05-24 19:26:00,47.1,46.9,29.93,North,0,0.7,2.2,99,0.01,,,0.15,pywws,2013-05-24 23:26:00,
2013-05-24 19:31:00,46.9,46.7,29.93,North,0,0.7,1.6,99,0.01,,,0.15,pywws,2013-05-24 23:31:00,
2013-05-24 19:37:00,46.9,46.7,29.93,NE,45,2.2,4.5,99,0.01,,,0.15,pywws,2013-05-24 23:37:00,
2013-05-24 19:42:00,46.4,46.1,29.93,West,270,1.6,2.2,99,0.01,,,0.15,pywws,2013-05-24 23:42:00,
2013-05-24 19:48:00,46.2,45.4,29.93,North,0,0.7,2.2,97,0.01,,,0.15,pywws,2013-05-24 23:48:00,
2013-05-24 19:54:00,46.2,45.4,29.93,NNE,22,1.6,2.2,97,0.01,,,0.15,pywws,2013-05-24 23:54:00,
2013-05-24 19:59:00,46.2,45.4,29.93,North,0,1.6,2.2,97,0.00,,,0.15,pywws,2013-05-24 23:59:00,
2013-05-24 20:05:00,46.0,45.2,29.93,North,0,0.7,2.2,97,0.00,,,0.15,pywws,2013-05-25 00:05:00,
2013-05-24 20:10:00,45.9,45.1,29.93,North,0,0.7,2.2,97,0.00,,,0.15,pywws,2013-05-25 00:10:00,
2013-05-24 20:16:00,45.7,44.9,29.93,East,90,1.6,3.1,97,0.01,,,0.17,pywws,2013-05-25 00:16:00,
2013-05-24 20:22:00,45.7,44.9,29.94,NW,315,1.6,3.1,97,0.01,,,0.17,pywws,2013-05-25 00:22:00,
2013-05-24 20:27:00,45.5,44.7,29.94,NW,315,1.6,2.2,97,0.01,,,0.17,pywws,2013-05-25 00:27:00,
2013-05-24 20:33:00,45.5,44.7,29.95,North,0,0.7,1.6,97,0.01,,,0.17,pywws,2013-05-25 00:33:00,
2013-05-24 20:39:00,45.5,44.7,29.95,NE,45,1.6,3.1,97,0.01,,,0.17,pywws,2013-05-25 00:39:00,
2013-05-24 20:45:00,45.5,44.7,29.94,North,0,0.7,2.2,97,0.01,,,0.17,pywws,2013-05-25 00:45:00,
2013-05-24 20:50:00,45.3,44.5,29.93,North,0,1.6,1.6,97,0.01,,,0.17,pywws,2013-05-25 00:50:00,
2013-05-24 20:56:00,45.3,44.5,29.93,NE,45,1.6,2.2,97,0.01,,,0.17,pywws,2013-05-25 00:56:00,
2013-05-24 21:02:00,45.3,44.5,29.93,NW,315,1.6,2.2,97,0.01,,,0.17,pywws,2013-05-25 01:02:00,
2013-05-24 21:07:00,45.1,44.3,29.93,North,0,0.7,1.6,97,0.01,,,0.17,pywws,2013-05-25 01:07:00,
2013-05-24 21:13:00,45.0,44.2,29.93,North,0,0.7,1.6,97,0.01,,,0.17,pywws,2013-05-25 01:13:00,
2013-05-24 21:18:00,45.0,44.2,29.93,North,0,0.7,2.2,97,0.00,,,0.17,pywws,2013-05-25 01:18:00,
2013-05-24 21:24:00,44.8,44.0,29.95,NW,315,0.7,1.6,97,0.00,,,0.17,pywws,2013-05-25 01:24:00,
2013-05-24 21:30:00,44.8,44.0,29.94,North,0,1.6,2.2,97,0.00,,,0.17,pywws,2013-05-25 01:30:00,
2013-05-24 21:35:00,44.8,44.0,29.93,North,0,0.7,1.6,97,0.00,,,0.17,pywws,2013-05-25 01:35:00,
2013-05-24 21:41:00,44.8,44.0,29.94,North,0,0.7,1.6,97,0.00,,,0.17,pywws,2013-05-25 01:41:00,
2013-05-24 21:46:00,44.6,43.8,29.96,North,0,1.6,3.1,97,0.00,,,0.17,pywws,2013-05-25 01:46:00,
2013-05-24 21:52:00,44.2,43.7,29.96,NE,45,1.6,3.1,98,0.00,,,0.17,pywws,2013-05-25 01:52:00,
2013-05-24 21:58:00,44.6,43.8,29.96,North,0,0.7,1.6,97,0.00,,,0.17,pywws,2013-05-25 01:58:00,
2013-05-24 22:03:00,44.6,43.8,29.96,NW,315,0.7,2.2,97,0.00,,,0.17,pywws,2013-05-25 02:03:00,
2013-05-24 22:09:00,44.6,43.8,29.97,NE,45,0.7,2.2,97,0.00,,,0.17,pywws,2013-05-25 02:09:00,
2013-05-24 22:14:00,44.6,43.8,29.97,West,270,0.7,1.6,97,0.00,,,0.17,pywws,2013-05-25 02:14:00,
2013-05-24 22:20:00,44.4,43.9,29.96,North,0,0.7,1.6,98,0.00,,,0.17,pywws,2013-05-25 02:20:00,
2013-05-24 22:26:00,44.4,43.9,29.96,NE,45,1.6,2.2,98,0.00,,,0.17,pywws,2013-05-25 02:26:00,
2013-05-24 22:31:00,44.2,43.7,29.95,NNW,338,0.7,2.2,98,0.00,,,0.17,pywws,2013-05-25 02:31:00,
2013-05-24 22:37:00,44.2,43.7,29.94,NW,315,1.6,3.1,98,0.00,,,0.17,pywws,2013-05-25 02:37:00,
2013-05-24 22:42:00,44.2,43.7,29.96,NW,315,1.6,2.2,98,0.00,,,0.17,pywws,2013-05-25 02:42:00,
2013-05-24 22:48:00,44.2,43.7,29.96,NE,45,1.6,3.1,98,0.00,,,0.17,pywws,2013-05-25 02:48:00,
2013-05-24 22:54:00,44.1,43.5,29.95,NE,45,2.2,3.1,98,0.00,,,0.17,pywws,2013-05-25 02:54:00,
2013-05-24 22:59:00,44.1,43.5,29.95,North,0,1.6,2.2,98,0.00,,,0.17,pywws,2013-05-25 02:59:00,
2013-05-24 23:05:00,43.9,43.4,29.95,North,0,0.7,1.6,98,0.00,,,0.17,pywws,2013-05-25 03:05:00,
2013-05-24 23:11:00,44.1,43.5,29.95,West,270,0.7,1.6,98,0.00,,,0.17,pywws,2013-05-25 03:11:00,
2013-05-24 23:17:00,44.1,43.5,29.96,North,0,0.0,0.7,98,0.00,,,0.17,pywws,2013-05-25 03:17:00,
2013-05-24 23:22:00,44.1,43.5,29.95,North,0,0.7,1.6,98,0.00,,,0.17,pywws,2013-05-25 03:22:00,
2013-05-24 23:28:00,44.1,43.5,29.95,North,0,1.6,2.2,98,0.00,,,0.17,pywws,2013-05-25 03:28:00,
2013-05-24 23:34:00,44.1,43.5,29.96,North,0,0.7,1.6,98,0.00,,,0.17,pywws,2013-05-25 03:34:00,
2013-05-24 23:39:00,43.9,43.4,29.96,North,0,0.0,0.7,98,0.00,,,0.17,pywws,2013-05-25 03:39:00,
2013-05-24 23:45:00,43.9,43.4,29.96,North,0,0.7,1.6,98,0.00,,,0.17,pywws,2013-05-25 03:45:00,
2013-05-24 23:50:00,43.9,43.4,29.96,North,0,0.7,1.6,98,0.00,,,0.17,pywws,2013-05-25 03:50:00,
2013-05-24 23:56:00,43.9,43.4,29.96,North,0,1.6,2.2,98,0.00,,,0.17,pywws,2013-05-25 03:56:00,